sensor_id;sensor_type;location;lat;lon;timestamp;pressure;altitude;pressure_sealevel;temperature;humidity
70434;BME280;57876;47.792;12.960;2023-05-01T00:01:25;96670.53;;;14.17;52.78
70434;BME280;57876;47.792;12.960;2023-05-01T00:03:50;96672.16;;;14.18;52.33
70434;BME280;57876;47.792;12.960;2023-05-01T00:06:15;96675.66;;;14.18;52.65
70434;BME280;57876;47.792;12.960;2023-05-01T00:08:42;96664.78;;;14.18;52.40
70434;BME280;57876;47.792;12.960;2023-05-01T00:11:06;96671.31;;;14.17;52.93
70434;BME280;57876;47.792;12.960;2023-05-01T00:13:37;96666.38;;;14.19;52.31
70434;BME280;57876;47.792;12.960;2023-05-01T00:16:07;96664.78;;;14.18;52.68
70434;BME280;57876;47.792;12.960;2023-05-01T00:18:31;96665.59;;;14.19;52.34
70434;BME280;57876;47.792;12.960;2023-05-01T00:20:57;96654.22;;;14.17;52.50
70434;BME280;57876;47.792;12.960;2023-05-01T00:23:22;96657.72;;;14.17;52.37
70434;BME280;57876;47.792;12.960;2023-05-01T00:25:46;96646.84;;;14.17;52.60
70434;BME280;57876;47.792;12.960;2023-05-01T00:28:10;96649.91;;;14.16;52.58
70434;BME280;57876;47.792;12.960;2023-05-01T00:30:35;96652.28;;;14.17;52.46
70434;BME280;57876;47.792;12.960;2023-05-01T00:33:00;96651.81;;;14.15;52.69
70434;BME280;57876;47.792;12.960;2023-05-01T00:35:25;96630.19;;;14.10;52.49
70434;BME280;57876;47.792;12.960;2023-05-01T00:37:49;96646.06;;;14.17;52.37
70434;BME280;57876;47.792;12.960;2023-05-01T00:40:14;96637.88;;;14.17;52.36
70434;BME280;57876;47.792;12.960;2023-05-01T00:42:39;96641.41;;;14.17;52.59
70434;BME280;57876;47.792;12.960;2023-05-01T00:45:05;96634.38;;;14.16;52.91
70434;BME280;57876;47.792;12.960;2023-05-01T00:47:30;96633.56;;;14.16;52.42
70434;BME280;57876;47.792;12.960;2023-05-01T00:49:54;96641.41;;;14.17;52.44
70434;BME280;57876;47.792;12.960;2023-05-01T00:52:19;96630.53;;;14.17;52.50
70434;BME280;57876;47.792;12.960;2023-05-01T00:54:44;96629.22;;;14.15;52.69
70434;BME280;57876;47.792;12.960;2023-05-01T00:57:14;96629.72;;;14.17;52.63
70434;BME280;57876;47.792;12.960;2023-05-01T00:59:39;96620.28;;;14.14;52.78
70434;BME280;57876;47.792;12.960;2023-05-01T01:02:04;96626.50;;;14.15;52.69
70434;BME280;57876;47.792;12.960;2023-05-01T01:04:28;96629.72;;;14.17;52.38
70434;BME280;57876;47.792;12.960;2023-05-01T01:07:06;96626.22;;;14.16;52.65
70434;BME280;57876;47.792;12.960;2023-05-01T01:12:26;96627.81;;;14.17;52.68
70434;BME280;57876;47.792;12.960;2023-05-01T01:18:15;96616.47;;;14.15;52.47
70434;BME280;57876;47.792;12.960;2023-05-01T01:20:50;96618.06;;;14.16;52.60
70434;BME280;57876;47.792;12.960;2023-05-01T01:26:12;96615.34;;;14.16;52.52
70434;BME280;57876;47.792;12.960;2023-05-01T01:34:39;96601.56;;;14.13;52.73
70434;BME280;57876;47.792;12.960;2023-05-01T01:37:11;96599.94;;;14.12;52.70
70434;BME280;57876;47.792;12.960;2023-05-01T01:42:36;96602.03;;;14.15;52.57
70434;BME280;57876;47.792;12.960;2023-05-01T01:45:04;96596.13;;;14.13;52.55
70434;BME280;57876;47.792;12.960;2023-05-01T01:47:34;96594.22;;;14.13;52.89
70434;BME280;57876;47.792;12.960;2023-05-01T01:50:02;96592.28;;;14.14;52.45
70434;BME280;57876;47.792;12.960;2023-05-01T01:52:29;96587.97;;;14.13;52.46
70434;BME280;57876;47.792;12.960;2023-05-01T01:54:57;96583.63;;;14.12;52.86
70434;BME280;57876;47.792;12.960;2023-05-01T01:57:24;96575.16;;;14.13;52.64
70434;BME280;57876;47.792;12.960;2023-05-01T01:59:50;96577.56;;;14.15;52.56
70434;BME280;57876;47.792;12.960;2023-05-01T02:02:16;96575.16;;;14.13;52.58
70434;BME280;57876;47.792;12.960;2023-05-01T02:04:43;96577.88;;;14.13;52.37
70434;BME280;57876;47.792;12.960;2023-05-01T02:07:09;96568.94;;;14.13;52.41
70434;BME280;57876;47.792;12.960;2023-05-01T02:09:36;96568.75;;;14.09;52.44
70434;BME280;57876;47.792;12.960;2023-05-01T02:12:04;96568.94;;;14.13;52.41
70434;BME280;57876;47.792;12.960;2023-05-01T02:14:30;96576.75;;;14.14;52.41
70434;BME280;57876;47.792;12.960;2023-05-01T02:16:55;96570.53;;;14.14;52.73
70434;BME280;57876;47.792;12.960;2023-05-01T02:19:22;96552.63;;;14.13;52.39
70434;BME280;57876;47.792;12.960;2023-05-01T02:21:48;96562.38;;;14.14;52.40
70434;BME280;57876;47.792;12.960;2023-05-01T02:24:14;96551.78;;;14.12;52.35
70434;BME280;57876;47.792;12.960;2023-05-01T02:26:47;96544.75;;;14.11;52.43
70434;BME280;57876;47.792;12.960;2023-05-01T02:29:13;96552.63;;;14.13;52.53
70434;BME280;57876;47.792;12.960;2023-05-01T02:31:37;96554.22;;;14.14;52.31
70434;BME280;57876;47.792;12.960;2023-05-01T02:34:01;96556.94;;;14.14;52.51
70434;BME280;57876;47.792;12.960;2023-05-01T02:36:26;96547.19;;;14.13;52.73
70434;BME280;57876;47.792;12.960;2023-05-01T02:38:51;96544.47;;;14.13;52.44
70434;BME280;57876;47.792;12.960;2023-05-01T02:41:15;96542.53;;;14.13;52.19
70434;BME280;57876;47.792;12.960;2023-05-01T02:43:44;96548.59;;;14.10;52.27
70434;BME280;57876;47.792;12.960;2023-05-01T02:46:11;96544.75;;;14.11;52.70
70434;BME280;57876;47.792;12.960;2023-05-01T02:48:37;96527.16;;;14.08;52.83
70434;BME280;57876;47.792;12.960;2023-05-01T02:51:02;96539.03;;;14.13;52.32
70434;BME280;57876;47.792;12.960;2023-05-01T02:53:27;96531.66;;;14.13;52.52
70434;BME280;57876;47.792;12.960;2023-05-01T02:55:51;96534.69;;;14.12;52.49
70434;BME280;57876;47.792;12.960;2023-05-01T02:58:17;96536.31;;;14.13;52.18
70434;BME280;57876;47.792;12.960;2023-05-01T03:00:42;96525.72;;;14.11;52.05
70434;BME280;57876;47.792;12.960;2023-05-01T03:03:07;96530.03;;;14.12;52.30
70434;BME280;57876;47.792;12.960;2023-05-01T03:05:32;96530.38;;;14.10;52.23
70434;BME280;57876;47.792;12.960;2023-05-01T03:07:56;96524.59;;;14.12;52.52
70434;BME280;57876;47.792;12.960;2023-05-01T03:10:20;96523.00;;;14.11;52.64
70434;BME280;57876;47.792;12.960;2023-05-01T03:12:45;96524.59;;;14.12;52.54
70434;BME280;57876;47.792;12.960;2023-05-01T03:15:09;96516.44;;;14.12;52.25
70434;BME280;57876;47.792;12.960;2023-05-01T03:17:35;96514.84;;;14.11;52.61
70434;BME280;57876;47.792;12.960;2023-05-01T03:20:00;96517.91;;;14.09;52.42
70434;BME280;57876;47.792;12.960;2023-05-01T03:22:28;96517.56;;;14.11;52.47
70434;BME280;57876;47.792;12.960;2023-05-01T03:24:52;96512.91;;;14.12;52.32
70434;BME280;57876;47.792;12.960;2023-05-01T03:27:16;96511.63;;;14.09;52.43
70434;BME280;57876;47.792;12.960;2023-05-01T03:29:41;96512.13;;;14.11;52.61
70434;BME280;57876;47.792;12.960;2023-05-01T03:32:06;96511.34;;;14.10;52.82
70434;BME280;57876;47.792;12.960;2023-05-01T03:34:30;96507.81;;;14.10;52.71
70434;BME280;57876;47.792;12.960;2023-05-01T03:36:55;96505.88;;;14.10;52.21
70434;BME280;57876;47.792;12.960;2023-05-01T03:39:19;96501.56;;;14.09;52.34
70434;BME280;57876;47.792;12.960;2023-05-01T03:41:43;96501.88;;;14.08;52.33
70434;BME280;57876;47.792;12.960;2023-05-01T03:44:08;96499.66;;;14.10;52.44
70434;BME280;57876;47.792;12.960;2023-05-01T03:46:33;96499.66;;;14.10;52.55
70434;BME280;57876;47.792;12.960;2023-05-01T03:48:57;96500.75;;;14.09;52.55
70434;BME280;57876;47.792;12.960;2023-05-01T03:51:22;96494.03;;;14.06;52.32
70434;BME280;57876;47.792;12.960;2023-05-01T03:53:47;96496.44;;;14.08;52.55
70434;BME280;57876;47.792;12.960;2023-05-01T03:56:11;96492.44;;;14.05;52.15
70434;BME280;57876;47.792;12.960;2023-05-01T03:58:36;96491.31;;;14.06;52.45
70434;BME280;57876;47.792;12.960;2023-05-01T04:01:00;96487.78;;;14.06;52.28
70434;BME280;57876;47.792;12.960;2023-05-01T04:03:26;96497.56;;;14.07;52.31
70434;BME280;57876;47.792;12.960;2023-05-01T04:05:50;96504.31;;;14.09;52.51
70434;BME280;57876;47.792;12.960;2023-05-01T04:08:16;96491.44;;;14.01;52.48
70434;BME280;57876;47.792;12.960;2023-05-01T04:10:40;96500.75;;;14.09;52.49
70434;BME280;57876;47.792;12.960;2023-05-01T04:13:04;96495.16;;;14.05;52.60
70434;BME280;57876;47.792;12.960;2023-05-01T04:15:30;96502.69;;;14.08;52.03
70434;BME280;57876;47.792;12.960;2023-05-01T04:17:54;96492.72;;;14.04;52.62
70434;BME280;57876;47.792;12.960;2023-05-01T04:20:19;96496.44;;;14.08;52.38
70434;BME280;57876;47.792;12.960;2023-05-01T04:22:44;96492.72;;;14.04;51.99
70434;BME280;57876;47.792;12.960;2023-05-01T04:25:09;96496.13;;;14.09;52.33
70434;BME280;57876;47.792;12.960;2023-05-01T04:27:33;96490.50;;;14.06;52.14
70434;BME280;57876;47.792;12.960;2023-05-01T04:29:58;96488.59;;;14.06;52.61
70434;BME280;57876;47.792;12.960;2023-05-01T04:32:22;96487.78;;;14.06;52.46
70434;BME280;57876;47.792;12.960;2023-05-01T04:34:49;96483.47;;;14.05;52.11
70434;BME280;57876;47.792;12.960;2023-05-01T04:37:13;96486.84;;;14.02;52.62
70434;BME280;57876;47.792;12.960;2023-05-01T04:39:40;96486.19;;;14.05;52.48
70434;BME280;57876;47.792;12.960;2023-05-01T04:42:05;96494.84;;;14.07;52.37
70434;BME280;57876;47.792;12.960;2023-05-01T04:44:30;96480.25;;;14.03;52.35
70434;BME280;57876;47.792;12.960;2023-05-01T04:46:54;96491.50;;;14.10;52.25
70434;BME280;57876;47.792;12.960;2023-05-01T04:49:21;96494.84;;;14.07;52.27
70434;BME280;57876;47.792;12.960;2023-05-01T04:51:46;96505.88;;;14.10;52.28
70434;BME280;57876;47.792;12.960;2023-05-01T04:54:12;96489.56;;;14.02;52.11
70434;BME280;57876;47.792;12.960;2023-05-01T04:56:37;96497.38;;;14.03;52.35
70434;BME280;57876;47.792;12.960;2023-05-01T04:59:01;96507.31;;;14.08;52.59
70434;BME280;57876;47.792;12.960;2023-05-01T05:01:26;96507.94;;;14.05;52.59
70434;BME280;57876;47.792;12.960;2023-05-01T05:03:50;96505.72;;;14.07;52.59
70434;BME280;57876;47.792;12.960;2023-05-01T05:06:14;96497.25;;;14.08;52.20
70434;BME280;57876;47.792;12.960;2023-05-01T05:08:39;96500.59;;;14.05;52.32
70434;BME280;57876;47.792;12.960;2023-05-01T05:11:03;96497.06;;;14.05;52.24
70434;BME280;57876;47.792;12.960;2023-05-01T05:13:30;96489.22;;;14.03;52.61
70434;BME280;57876;47.792;12.960;2023-05-01T05:15:54;96498.66;;;14.06;51.95
70434;BME280;57876;47.792;12.960;2023-05-01T05:18:19;96494.84;;;14.07;52.30
70434;BME280;57876;47.792;12.960;2023-05-01T05:20:43;96492.59;;;14.09;52.35
70434;BME280;57876;47.792;12.960;2023-05-01T05:23:08;96487.50;;;14.07;52.19
70434;BME280;57876;47.792;12.960;2023-05-01T05:25:32;96485.06;;;14.06;52.31
70434;BME280;57876;47.792;12.960;2023-05-01T05:28:14;96491.16;;;14.03;52.22
70434;BME280;57876;47.792;12.960;2023-05-01T05:30:39;96500.28;;;14.07;52.63
70434;BME280;57876;47.792;12.960;2023-05-01T05:33:06;96492.13;;;14.07;52.32
70434;BME280;57876;47.792;12.960;2023-05-01T05:35:33;96499.78;;;14.05;52.33
70434;BME280;57876;47.792;12.960;2023-05-01T05:37:57;96493.22;;;14.06;52.29
70434;BME280;57876;47.792;12.960;2023-05-01T05:40:22;96497.56;;;14.07;52.60
70434;BME280;57876;47.792;12.960;2023-05-01T05:42:46;96502.69;;;14.08;52.38
70434;BME280;57876;47.792;12.960;2023-05-01T05:45:11;96500.75;;;14.09;52.36
70434;BME280;57876;47.792;12.960;2023-05-01T05:47:35;96506.19;;;14.09;52.46
70434;BME280;57876;47.792;12.960;2023-05-01T05:50:00;96509.41;;;14.11;52.44
70434;BME280;57876;47.792;12.960;2023-05-01T05:52:24;96507.81;;;14.10;52.57
70434;BME280;57876;47.792;12.960;2023-05-01T05:54:48;96505.56;;;14.12;52.46
70434;BME280;57876;47.792;12.960;2023-05-01T05:57:13;96505.88;;;14.10;52.39
70434;BME280;57876;47.792;12.960;2023-05-01T05:59:38;96500.75;;;14.09;51.83
70434;BME280;57876;47.792;12.960;2023-05-01T06:02:02;96508.91;;;14.09;52.40
70434;BME280;57876;47.792;12.960;2023-05-01T06:04:27;96504.31;;;14.09;52.37
70434;BME280;57876;47.792;12.960;2023-05-01T06:06:51;96511.34;;;14.10;52.24
70434;BME280;57876;47.792;12.960;2023-05-01T06:09:16;96506.19;;;14.09;52.31
70434;BME280;57876;47.792;12.960;2023-05-01T06:11:42;96500.28;;;14.07;52.28
70434;BME280;57876;47.792;12.960;2023-05-01T06:14:06;96514.53;;;14.13;52.28
70434;BME280;57876;47.792;12.960;2023-05-01T06:16:30;96505.72;;;14.07;52.43
70434;BME280;57876;47.792;12.960;2023-05-01T06:18:58;96500.44;;;14.10;52.60
70434;BME280;57876;47.792;12.960;2023-05-01T06:21:29;96512.63;;;14.13;52.27
70434;BME280;57876;47.792;12.960;2023-05-01T06:23:55;96503.47;;;14.09;52.03
70434;BME280;57876;47.792;12.960;2023-05-01T06:26:22;96507.81;;;14.10;52.44
70434;BME280;57876;47.792;12.960;2023-05-01T06:28:46;96503.00;;;14.07;52.19
70434;BME280;57876;47.792;12.960;2023-05-01T06:31:13;96507.63;;;14.06;52.36
70434;BME280;57876;47.792;12.960;2023-05-01T06:33:40;96514.72;;;14.16;52.27
70434;BME280;57876;47.792;12.960;2023-05-01T06:36:05;96505.25;;;14.14;52.38
70434;BME280;57876;47.792;12.960;2023-05-01T06:38:29;96495.66;;;14.07;52.39
70434;BME280;57876;47.792;12.960;2023-05-01T06:40:56;96510.84;;;14.17;52.46
70434;BME280;57876;47.792;12.960;2023-05-01T06:43:20;96493.88;;;14.12;52.35
70434;BME280;57876;47.792;12.960;2023-05-01T06:45:45;96491.97;;;14.12;52.82
70434;BME280;57876;47.792;12.960;2023-05-01T06:48:09;96495.81;;;14.11;52.23
70434;BME280;57876;47.792;12.960;2023-05-01T06:50:34;96502.69;;;14.17;52.47
70434;BME280;57876;47.792;12.960;2023-05-01T06:52:59;96492.47;;;14.14;52.26
70434;BME280;57876;47.792;12.960;2023-05-01T06:55:25;96503.81;;;14.16;52.29
70434;BME280;57876;47.792;12.960;2023-05-01T06:57:50;96502.22;;;14.15;52.44
70434;BME280;57876;47.792;12.960;2023-05-01T07:00:15;96513.56;;;14.17;52.54
70434;BME280;57876;47.792;12.960;2023-05-01T07:02:40;96500.13;;;14.12;52.50
70434;BME280;57876;47.792;12.960;2023-05-01T07:05:05;96517.91;;;14.18;52.32
70434;BME280;57876;47.792;12.960;2023-05-01T07:07:29;96507.69;;;14.15;52.47
70434;BME280;57876;47.792;12.960;2023-05-01T07:09:54;96510.06;;;14.17;52.19
70434;BME280;57876;47.792;12.960;2023-05-01T07:12:19;96500.63;;;14.14;52.50
70434;BME280;57876;47.792;12.960;2023-05-01T07:14:43;96513.28;;;14.19;52.71
70434;BME280;57876;47.792;12.960;2023-05-01T07:17:07;96512.47;;;14.18;52.43
70434;BME280;57876;47.792;12.960;2023-05-01T07:19:32;96503.03;;;14.16;52.44
70434;BME280;57876;47.792;12.960;2023-05-01T07:21:56;96504.97;;;14.15;52.42
70434;BME280;57876;47.792;12.960;2023-05-01T07:24:21;96514.06;;;14.19;52.15
70434;BME280;57876;47.792;12.960;2023-05-01T07:26:45;96505.91;;;14.19;52.21
70434;BME280;57876;47.792;12.960;2023-05-01T07:29:10;96513.28;;;14.19;52.63
70434;BME280;57876;47.792;12.960;2023-05-01T07:31:36;96498.69;;;14.15;52.51
70434;BME280;57876;47.792;12.960;2023-05-01T07:34:02;96515.69;;;14.20;52.30
70434;BME280;57876;47.792;12.960;2023-05-01T07:36:27;96508.97;;;14.18;52.13
70434;BME280;57876;47.792;12.960;2023-05-01T07:38:51;96504.81;;;14.20;52.61
70434;BME280;57876;47.792;12.960;2023-05-01T07:41:16;96504.81;;;14.20;52.38
70434;BME280;57876;47.792;12.960;2023-05-01T07:43:40;96508.00;;;14.22;52.35
70434;BME280;57876;47.792;12.960;2023-05-01T07:46:04;96493.94;;;14.20;52.42
70434;BME280;57876;47.792;12.960;2023-05-01T07:48:30;96499.84;;;14.22;52.12
70434;BME280;57876;47.792;12.960;2023-05-01T07:50:55;96498.56;;;14.20;52.18
70434;BME280;57876;47.792;12.960;2023-05-01T07:53:22;96496.66;;;14.20;52.19
70434;BME280;57876;47.792;12.960;2023-05-01T07:55:47;96503.69;;;14.21;52.23
70434;BME280;57876;47.792;12.960;2023-05-01T07:58:11;96500.47;;;14.19;52.35
70434;BME280;57876;47.792;12.960;2023-05-01T08:00:36;96506.41;;;14.21;52.54
70434;BME280;57876;47.792;12.960;2023-05-01T08:03:01;96510.09;;;14.25;52.10
70434;BME280;57876;47.792;12.960;2023-05-01T08:05:25;96504.19;;;14.23;52.08
70434;BME280;57876;47.792;12.960;2023-05-01T08:07:50;96511.22;;;14.24;52.48
70434;BME280;57876;47.792;12.960;2023-05-01T08:10:14;96509.28;;;14.25;52.26
70434;BME280;57876;47.792;12.960;2023-05-01T08:12:39;96509.78;;;14.27;52.17
70434;BME280;57876;47.792;12.960;2023-05-01T08:15:06;96503.53;;;14.26;52.41
70434;BME280;57876;47.792;12.960;2023-05-01T08:17:31;96497.31;;;14.26;52.37
70434;BME280;57876;47.792;12.960;2023-05-01T08:19:55;96511.88;;;14.30;52.19
70434;BME280;57876;47.792;12.960;2023-05-01T08:22:23;96499.19;;;14.25;51.92
70434;BME280;57876;47.792;12.960;2023-05-01T08:24:49;96497.63;;;14.24;52.11
70434;BME280;57876;47.792;12.960;2023-05-01T08:27:16;96501.31;;;14.28;52.13
70434;BME280;57876;47.792;12.960;2023-05-01T08:29:40;96501.31;;;14.28;51.94
70434;BME280;57876;47.792;12.960;2023-05-01T08:32:08;96506.13;;;14.31;52.20
70434;BME280;57876;47.792;12.960;2023-05-01T08:34:32;96511.56;;;14.31;52.02
70434;BME280;57876;47.792;12.960;2023-05-01T08:36:58;96505.78;;;14.33;52.16
70434;BME280;57876;47.792;12.960;2023-05-01T08:39:22;96504.50;;;14.30;51.99
70434;BME280;57876;47.792;12.960;2023-05-01T08:41:47;96497.31;;;14.26;52.00
70434;BME280;57876;47.792;12.960;2023-05-01T08:44:15;96501.19;;;14.34;52.05
70434;BME280;57876;47.792;12.960;2023-05-01T08:46:46;96505.00;;;14.32;52.14
70434;BME280;57876;47.792;12.960;2023-05-01T08:49:15;96497.97;;;14.31;51.89
70434;BME280;57876;47.792;12.960;2023-05-01T08:51:42;96507.72;;;14.32;52.07
70434;BME280;57876;47.792;12.960;2023-05-01T08:54:08;96497.63;;;14.24;52.05
70434;BME280;57876;47.792;12.960;2023-05-01T08:56:35;96504.50;;;14.30;52.23
70434;BME280;57876;47.792;12.960;2023-05-01T09:02:17;96495.53;;;14.21;52.15
70434;BME280;57876;47.792;12.960;2023-05-01T09:08:24;96507.38;;;14.25;51.98
70434;BME280;57876;47.792;12.960;2023-05-01T09:10:56;96503.19;;;14.19;51.88
70434;BME280;57876;47.792;12.960;2023-05-01T09:13:42;96497.75;;;14.19;52.10
70434;BME280;57876;47.792;12.960;2023-05-01T09:19:02;96489.59;;;14.19;51.99
70434;BME280;57876;47.792;12.960;2023-05-01T09:21:29;96488.00;;;14.18;52.20
70434;BME280;57876;47.792;12.960;2023-05-01T09:23:55;96497.13;;;14.22;51.95
70434;BME280;57876;47.792;12.960;2023-05-01T09:26:19;96498.09;;;14.26;52.17
70434;BME280;57876;47.792;12.960;2023-05-01T09:28:46;96488.00;;;14.18;51.98
70434;BME280;57876;47.792;12.960;2023-05-01T09:31:24;96496.47;;;14.25;52.16
70434;BME280;57876;47.792;12.960;2023-05-01T09:33:55;96492.81;;;14.21;52.09
70434;BME280;57876;47.792;12.960;2023-05-01T09:36:21;96483.53;;;14.22;52.06
70434;BME280;57876;47.792;12.960;2023-05-01T09:38:46;96487.06;;;14.23;52.33
70434;BME280;57876;47.792;12.960;2023-05-01T09:41:10;96486.72;;;14.24;51.73
70434;BME280;57876;47.792;12.960;2023-05-01T09:43:35;96494.59;;;14.26;51.91
70434;BME280;57876;47.792;12.960;2023-05-01T09:46:14;96488.97;;;14.22;52.03
70434;BME280;57876;47.792;12.960;2023-05-01T09:48:38;96487.06;;;14.23;52.27
70434;BME280;57876;47.792;12.960;2023-05-01T09:51:29;96491.03;;;14.25;52.00
70434;BME280;57876;47.792;12.960;2023-05-01T09:54:23;96477.13;;;14.18;52.21
70434;BME280;57876;47.792;12.960;2023-05-01T09:56:50;96484.34;;;14.23;52.24
70434;BME280;57876;47.792;12.960;2023-05-01T09:59:19;96483.53;;;14.22;52.14
70434;BME280;57876;47.792;12.960;2023-05-01T10:01:47;96477.78;;;14.24;52.06
70434;BME280;57876;47.792;12.960;2023-05-01T10:04:13;96472.19;;;14.20;52.17
70434;BME280;57876;47.792;12.960;2023-05-01T10:07:26;96475.19;;;14.19;52.07
70434;BME280;57876;47.792;12.960;2023-05-01T10:10:17;96476.50;;;14.21;52.03
70434;BME280;57876;47.792;12.960;2023-05-01T10:12:42;96483.22;;;14.24;52.05
70434;BME280;57876;47.792;12.960;2023-05-01T10:15:17;96484.81;;;14.25;52.23
70434;BME280;57876;47.792;12.960;2023-05-01T10:17:43;96484.00;;;14.24;52.42
70434;BME280;57876;47.792;12.960;2023-05-01T10:20:11;96475.34;;;14.22;52.17
70434;BME280;57876;47.792;12.960;2023-05-01T10:22:39;96468.31;;;14.21;52.07
70434;BME280;57876;47.792;12.960;2023-05-01T10:25:12;96473.78;;;14.21;52.41
70434;BME280;57876;47.792;12.960;2023-05-01T10:27:43;96463.53;;;14.18;52.09
70434;BME280;57876;47.792;12.960;2023-05-01T10:30:08;96459.69;;;14.19;52.19
70434;BME280;57876;47.792;12.960;2023-05-01T10:32:34;96467.19;;;14.22;52.29
70434;BME280;57876;47.792;12.960;2023-05-01T10:35:28;96459.69;;;14.19;52.04
70434;BME280;57876;47.792;12.960;2023-05-01T10:38:01;96471.53;;;14.23;52.20
70434;BME280;57876;47.792;12.960;2023-05-01T10:43:22;96465.31;;;14.23;52.12
70434;BME280;57876;47.792;12.960;2023-05-01T10:45:52;96465.59;;;14.21;52.01
70434;BME280;57876;47.792;12.960;2023-05-01T10:51:10;96467.69;;;14.24;52.07
70434;BME280;57876;47.792;12.960;2023-05-01T10:53:36;96467.19;;;14.22;52.35
70434;BME280;57876;47.792;12.960;2023-05-01T10:56:01;96451.22;;;14.21;51.95
70434;BME280;57876;47.792;12.960;2023-05-01T11:03:50;96443.53;;;14.23;52.39
70434;BME280;57876;47.792;12.960;2023-05-01T11:06:15;96446.56;;;14.21;52.14
70434;BME280;57876;47.792;12.960;2023-05-01T11:08:39;96447.84;;;14.24;52.33
70434;BME280;57876;47.792;12.960;2023-05-01T11:19:01;96442.72;;;14.22;52.25
70434;BME280;57876;47.792;12.960;2023-05-01T11:21:29;96448.16;;;14.22;51.89
70434;BME280;57876;47.792;12.960;2023-05-01T11:24:03;96445.13;;;14.24;52.11
70434;BME280;57876;47.792;12.960;2023-05-01T11:26:28;96437.63;;;14.21;52.37
70434;BME280;57876;47.792;12.960;2023-05-01T11:28:54;96439.53;;;14.20;52.06
70434;BME280;57876;47.792;12.960;2023-05-01T11:31:18;96439.53;;;14.20;52.33
70434;BME280;57876;47.792;12.960;2023-05-01T11:33:43;96439.19;;;14.22;52.40
70434;BME280;57876;47.792;12.960;2023-05-01T11:36:08;96431.84;;;14.22;52.50
70434;BME280;57876;47.792;12.960;2023-05-01T11:38:37;96435.69;;;14.21;52.11
70434;BME280;57876;47.792;12.960;2023-05-01T11:41:03;96428.47;;;14.17;52.23
70434;BME280;57876;47.792;12.960;2023-05-01T11:43:27;96431.69;;;14.19;52.30
70434;BME280;57876;47.792;12.960;2023-05-01T11:45:52;96435.69;;;14.21;51.90
70434;BME280;57876;47.792;12.960;2023-05-01T11:48:25;96439.38;;;14.25;52.33
70434;BME280;57876;47.792;12.960;2023-05-01T11:50:50;96431.84;;;14.22;52.03
70434;BME280;57876;47.792;12.960;2023-05-01T11:53:14;96435.69;;;14.21;51.99
70434;BME280;57876;47.792;12.960;2023-05-01T11:55:41;96444.34;;;14.23;52.17
70434;BME280;57876;47.792;12.960;2023-05-01T11:58:06;96436.63;;;14.25;52.15
70434;BME280;57876;47.792;12.960;2023-05-01T12:00:38;96436.63;;;14.25;52.25
70434;BME280;57876;47.792;12.960;2023-05-01T12:03:13;96435.53;;;14.26;52.29
70434;BME280;57876;47.792;12.960;2023-05-01T12:05:43;96443.69;;;14.26;51.92
70434;BME280;57876;47.792;12.960;2023-05-01T12:08:16;96434.56;;;14.22;52.32
70434;BME280;57876;47.792;12.960;2023-05-01T12:10:42;96427.84;;;14.20;51.97
70434;BME280;57876;47.792;12.960;2023-05-01T12:13:11;96429.31;;;14.26;52.30
70434;BME280;57876;47.792;12.960;2023-05-01T12:15:39;96426.25;;;14.27;52.38
70434;BME280;57876;47.792;12.960;2023-05-01T12:18:04;96430.41;;;14.25;52.11
70434;BME280;57876;47.792;12.960;2023-05-01T12:20:42;96426.41;;;14.22;51.99
70434;BME280;57876;47.792;12.960;2023-05-01T12:23:16;96426.09;;;14.24;52.23
70434;BME280;57876;47.792;12.960;2023-05-01T12:25:59;96432.03;;;14.26;52.38
70434;BME280;57876;47.792;12.960;2023-05-01T12:28:27;96430.75;;;14.23;52.02
70434;BME280;57876;47.792;12.960;2023-05-01T12:30:51;96423.22;;;14.20;52.11
70434;BME280;57876;47.792;12.960;2023-05-01T12:33:20;96411.69;;;14.23;52.04
70434;BME280;57876;47.792;12.960;2023-05-01T12:35:46;96417.13;;;14.23;52.04
70434;BME280;57876;47.792;12.960;2023-05-01T12:38:19;96418.72;;;14.24;51.94
70434;BME280;57876;47.792;12.960;2023-05-01T12:40:54;96419.53;;;14.25;52.19
70434;BME280;57876;47.792;12.960;2023-05-01T12:43:21;96421.94;;;14.26;52.12
70434;BME280;57876;47.792;12.960;2023-05-01T12:45:55;96408.50;;;14.21;52.17
70434;BME280;57876;47.792;12.960;2023-05-01T12:48:23;96418.72;;;14.24;52.14
70434;BME280;57876;47.792;12.960;2023-05-01T12:50:48;96415.38;;;14.27;52.13
70434;BME280;57876;47.792;12.960;2023-05-01T12:53:28;96411.69;;;14.23;51.85
70434;BME280;57876;47.792;12.960;2023-05-01T12:55:57;96406.72;;;14.25;52.13
70434;BME280;57876;47.792;12.960;2023-05-01T12:58:23;96414.56;;;14.27;52.13
70434;BME280;57876;47.792;12.960;2023-05-01T13:00:50;96401.91;;;14.22;52.00
70434;BME280;57876;47.792;12.960;2023-05-01T13:03:21;96402.41;;;14.24;52.25
70434;BME280;57876;47.792;12.960;2023-05-01T13:05:51;96400.97;;;14.27;51.99
70434;BME280;57876;47.792;12.960;2023-05-01T13:08:24;96407.22;;;14.27;52.30
70434;BME280;57876;47.792;12.960;2023-05-01T13:10:50;96400.03;;;14.23;52.22
70434;BME280;57876;47.792;12.960;2023-05-01T13:13:23;96404.00;;;14.25;52.05
70434;BME280;57876;47.792;12.960;2023-05-01T13:15:47;96404.00;;;14.25;51.85
70434;BME280;57876;47.792;12.960;2023-05-01T13:18:12;96404.81;;;14.26;52.27
70434;BME280;57876;47.792;12.960;2023-05-01T13:20:36;96400.97;;;14.27;52.11
70434;BME280;57876;47.792;12.960;2023-05-01T13:23:09;96398.56;;;14.25;52.00
70434;BME280;57876;47.792;12.960;2023-05-01T13:25:34;96402.91;;;14.26;51.92
70434;BME280;57876;47.792;12.960;2023-05-01T13:27:58;96402.91;;;14.26;51.91
70434;BME280;57876;47.792;12.960;2023-05-01T13:30:33;96405.63;;;14.26;51.99
70434;BME280;57876;47.792;12.960;2023-05-01T13:32:57;96395.84;;;14.25;52.07
70434;BME280;57876;47.792;12.960;2023-05-01T13:35:22;96399.06;;;14.27;52.07